Time;durP1;ratioP1;P1;durP2;ratioP2;P2;SDS_P1;SDS_P2;PMS_P1;PMS_P2;Temp;Humidity;BMP_temperature;BMP_pressure;BME280_temperature;BME280_humidity;BME280_pressure;Samples;Min_cycle;Max_cycle;Signal;HPM_P1;HPM_P2
2023/04/22 00:01:42;;;;;;;7.35;5.22;;;;;;;10.56;100.00;98177.59;5014610;28;20135;-76
2023/04/22 00:04:07;;;;;;;10.70;6.50;;;;;;;10.55;100.00;98186.75;5033054;28;20071;-78
2023/04/22 00:06:33;;;;;;;8.38;5.35;;;;;;;10.51;100.00;98186.38;5024348;28;20052;-77
2023/04/22 00:08:59;;;;;;;14.05;7.30;;;;;;;10.29;100.00;98166.94;5007738;28;20021;-78
2023/04/22 00:11:25;;;;;;;13.45;6.40;;;;;;;10.09;100.00;98144.59;5017414;28;20028;-78
2023/04/22 00:13:50;;;;;;;11.48;7.30;;;;;;;10.08;100.00;98159.94;5019684;28;20459;-77
2023/04/22 00:16:15;;;;;;;9.40;6.72;;;;;;;10.13;100.00;98170.13;5026501;28;20498;-77
2023/04/22 00:18:41;;;;;;;9.35;6.93;;;;;;;10.13;100.00;98163.88;5013287;28;20025;-77
2023/04/22 00:21:07;;;;;;;8.35;5.75;;;;;;;10.16;100.00;98172.38;5017306;28;20032;-77
2023/04/22 00:23:33;;;;;;;9.98;5.70;;;;;;;10.05;100.00;98144.16;5017364;28;20116;-77
2023/04/22 00:26:00;;;;;;;8.18;5.70;;;;;;;10.20;100.00;98178.22;5036234;28;20032;-77
2023/04/22 00:28:26;;;;;;;10.05;6.68;;;;;;;10.23;100.00;98167.78;4999519;28;20033;-77
2023/04/22 00:30:51;;;;;;;10.98;6.53;;;;;;;10.12;100.00;98154.97;5026250;28;20082;-77
2023/04/22 00:33:16;;;;;;;10.02;6.38;;;;;;;10.36;100.00;98172.31;5030788;28;20048;-77
2023/04/22 00:35:43;;;;;;;8.70;6.07;;;;;;;10.19;100.00;98158.47;5017087;28;20025;-77
2023/04/22 00:38:08;;;;;;;11.48;6.72;;;;;;;10.26;100.00;98163.81;5032763;28;20029;-78
2023/04/22 00:40:33;;;;;;;14.93;7.22;;;;;;;10.22;100.00;98157.19;5026945;28;20115;-78
2023/04/22 00:42:59;;;;;;;12.05;7.15;;;;;;;10.28;100.00;98165.28;5037054;28;20017;-78
2023/04/22 00:45:25;;;;;;;10.43;6.30;;;;;;;10.06;100.00;98117.97;5015648;28;20120;-78
2023/04/22 00:47:51;;;;;;;9.18;6.18;;;;;;;10.11;100.00;98134.38;5034700;28;20022;-77
2023/04/22 00:50:16;;;;;;;8.80;6.10;;;;;;;10.28;100.00;98183.41;5021505;28;20045;-78
2023/04/22 00:52:42;;;;;;;10.10;6.18;;;;;;;10.05;100.00;98138.75;5017144;28;20029;-78
2023/04/22 00:55:08;;;;;;;9.02;6.13;;;;;;;10.15;100.00;98159.94;5043747;28;20060;-77
2023/04/22 00:57:34;;;;;;;9.75;6.53;;;;;;;9.82;100.00;98119.56;5036644;28;20036;-79
2023/04/22 01:00:00;;;;;;;14.13;6.93;;;;;;;9.53;100.00;98083.13;5007953;28;20025;-77
2023/04/22 01:02:25;;;;;;;9.48;5.60;;;;;;;9.97;100.00;98146.31;5039187;28;20479;-78
2023/04/22 01:04:53;;;;;;;9.70;5.22;;;;;;;10.01;100.00;98147.53;5023240;28;20021;-79
2023/04/22 01:07:19;;;;;;;10.13;5.82;;;;;;;10.12;100.00;98171.19;5024405;28;20036;-78
2023/04/22 01:09:44;;;;;;;13.93;4.45;;;;;;;9.85;100.00;98133.47;5047069;28;20026;-77
2023/04/22 01:12:10;;;;;;;8.13;5.18;;;;;;;10.02;100.00;98150.00;5041291;28;20490;-77
2023/04/22 01:14:36;;;;;;;10.00;5.50;;;;;;;9.90;100.00;98138.22;5019174;28;20036;-77
2023/04/22 01:17:01;;;;;;;8.02;5.10;;;;;;;10.08;100.00;98165.34;5036059;28;20104;-77
2023/04/22 01:19:28;;;;;;;8.40;5.78;;;;;;;10.02;100.00;98154.59;5015967;28;20036;-78
2023/04/22 01:21:55;;;;;;;7.80;5.22;;;;;;;9.96;100.00;98141.97;5016997;28;20033;-78
2023/04/22 01:24:21;;;;;;;9.00;5.25;;;;;;;9.88;100.00;98149.25;5019319;28;20029;-78
2023/04/22 01:26:47;;;;;;;7.18;4.65;;;;;;;9.81;100.00;98153.84;5026053;28;20018;-77
2023/04/22 01:29:13;;;;;;;9.57;5.00;;;;;;;9.88;100.00;98170.06;5033711;28;20575;-78
2023/04/22 01:31:39;;;;;;;8.10;5.15;;;;;;;9.88;100.00;98170.06;5024110;28;20475;-77
2023/04/22 01:34:04;;;;;;;8.15;5.35;;;;;;;9.84;100.00;98166.09;5030160;28;20023;-77
2023/04/22 01:36:31;;;;;;;7.50;5.53;;;;;;;9.91;100.00;98163.38;5024027;28;20028;-78
2023/04/22 01:38:57;;;;;;;12.25;5.00;;;;;;;9.88;100.00;98138.44;5027486;28;20028;-78
2023/04/22 01:41:23;;;;;;;7.22;4.82;;;;;;;9.84;100.00;98145.31;5034461;28;20033;-78
2023/04/22 01:43:49;;;;;;;8.38;5.07;;;;;;;9.71;100.00;98139.97;5033986;28;20021;-77
2023/04/22 01:46:16;;;;;;;7.50;4.80;;;;;;;9.79;100.00;98147.00;5030072;28;20413;-78
2023/04/22 01:48:41;;;;;;;8.05;5.47;;;;;;;9.83;100.00;98146.38;5014572;28;20025;-78
2023/04/22 01:51:06;;;;;;;7.82;5.28;;;;;;;9.72;100.00;98130.00;5024558;28;20044;-78
2023/04/22 01:53:32;;;;;;;7.53;5.03;;;;;;;9.83;100.00;98157.19;5026783;28;20017;-77
2023/04/22 01:55:58;;;;;;;8.13;5.35;;;;;;;9.73;100.00;98147.88;5022808;28;20037;-78
2023/04/22 01:58:27;;;;;;;8.45;5.03;;;;;;;9.75;100.00;98164.69;5013494;28;20030;-78
2023/04/22 02:00:52;;;;;;;7.80;4.63;;;;;;;9.75;100.00;98164.69;5013510;28;20159;-78
2023/04/22 02:03:17;;;;;;;10.25;4.40;;;;;;;9.84;100.00;98174.22;5015326;28;20116;-78
2023/04/22 02:05:43;;;;;;;7.25;4.47;;;;;;;9.83;100.00;98157.19;5032564;28;20490;-78
2023/04/22 02:08:08;;;;;;;7.10;4.50;;;;;;;9.59;100.00;98128.19;5018621;28;20021;-78
2023/04/22 02:10:33;;;;;;;8.93;4.63;;;;;;;9.63;100.00;98142.91;5009342;28;20427;-78
2023/04/22 02:12:59;;;;;;;7.45;4.68;;;;;;;9.63;100.00;98148.31;5015129;28;20498;-77
2023/04/22 02:15:24;;;;;;;10.43;4.25;;;;;;;9.67;100.00;98157.66;5011271;28;20021;-77
2023/04/22 02:17:49;;;;;;;6.43;4.10;;;;;;;9.64;100.00;98153.53;5022795;28;20091;-77
2023/04/22 02:20:15;;;;;;;6.05;4.72;;;;;;;9.74;100.00;98190.88;5014797;28;20564;-78
2023/04/22 02:22:42;;;;;;;9.10;5.53;;;;;;;9.75;100.00;98187.13;4995239;28;20018;-77
2023/04/22 02:25:09;;;;;;;7.88;5.28;;;;;;;9.72;100.00;98173.22;5009271;28;20025;-78
2023/04/22 02:27:35;;;;;;;7.63;5.10;;;;;;;9.61;100.00;98158.50;5021843;28;20053;-78
2023/04/22 02:30:00;;;;;;;8.40;5.63;;;;;;;9.73;100.00;98183.81;5018181;28;20048;-77
2023/04/22 02:32:25;;;;;;;7.55;5.57;;;;;;;9.50;100.00;98161.88;5022683;28;20021;-78
2023/04/22 02:34:51;;;;;;;9.32;5.20;;;;;;;9.48;100.00;98162.06;5032509;28;20021;-77
2023/04/22 02:37:17;;;;;;;9.52;6.00;;;;;;;9.48;100.00;98172.03;5022651;28;20029;-78
2023/04/22 02:39:43;;;;;;;8.90;5.95;;;;;;;9.49;100.00;98176.41;5021827;28;20060;-78
2023/04/22 02:42:08;;;;;;;7.93;6.05;;;;;;;9.39;100.00;98182.25;5020123;28;20057;-77
2023/04/22 02:44:33;;;;;;;10.20;6.22;;;;;;;9.33;100.00;98183.09;5017522;28;20068;-77
2023/04/22 02:46:59;;;;;;;14.30;6.95;;;;;;;9.29;100.00;98185.38;5017575;28;20021;-78
2023/04/22 02:49:24;;;;;;;9.38;6.25;;;;;;;9.32;100.00;98190.34;5032507;28;20021;-77
2023/04/22 02:51:49;;;;;;;9.40;6.13;;;;;;;9.27;100.00;98194.72;5026330;28;20021;-78
2023/04/22 02:54:15;;;;;;;9.63;5.93;;;;;;;9.22;100.00;98192.63;5032627;28;20025;-77
2023/04/22 02:56:40;;;;;;;11.48;6.53;;;;;;;9.22;100.00;98200.75;5026847;28;20032;-78
2023/04/22 02:59:05;;;;;;;8.63;5.88;;;;;;;9.20;100.00;98203.66;5015493;28;20028;-78
2023/04/22 03:01:31;;;;;;;11.25;5.65;;;;;;;9.05;100.00;98183.34;5033495;28;20028;-78
2023/04/22 03:03:56;;;;;;;11.95;6.30;;;;;;;9.25;100.00;98216.53;5014278;28;20029;-77
2023/04/22 03:06:21;;;;;;;13.85;6.70;;;;;;;9.15;100.00;98191.84;5026288;28;20493;-78
2023/04/22 03:08:47;;;;;;;10.63;6.75;;;;;;;9.18;100.00;98191.41;5023175;28;20025;-78
2023/04/22 03:11:12;;;;;;;9.77;6.65;;;;;;;9.14;100.00;98190.16;5031053;28;20113;-78
2023/04/22 03:13:38;;;;;;;10.57;6.53;;;;;;;9.17;100.00;98196.00;5017145;28;20028;-78
2023/04/22 03:16:03;;;;;;;11.77;6.30;;;;;;;9.17;100.00;98201.38;5009365;28;20063;-77
2023/04/22 03:18:29;;;;;;;8.68;6.13;;;;;;;9.04;100.00;98181.66;5020860;28;20017;-77
2023/04/22 03:20:54;;;;;;;9.70;5.82;;;;;;;8.97;100.00;98179.81;5014441;28;20029;-77
2023/04/22 03:23:19;;;;;;;11.27;6.20;;;;;;;9.01;100.00;98185.59;5014917;28;20121;-78
2023/04/22 03:25:45;;;;;;;9.45;6.60;;;;;;;8.84;100.00;98173.59;5013620;28;20518;-77
2023/04/22 03:28:10;;;;;;;10.05;6.65;;;;;;;9.09;100.00;98203.44;5028574;28;20030;-78
2023/04/22 03:30:35;;;;;;;8.82;6.45;;;;;;;9.00;100.00;98195.56;5016165;28;20057;-77
2023/04/22 03:33:01;;;;;;;13.18;6.38;;;;;;;8.97;100.00;98189.78;5038359;28;20494;-78
2023/04/22 03:35:26;;;;;;;8.60;6.38;;;;;;;8.97;100.00;98185.19;5030176;28;20040;-78
2023/04/22 03:37:52;;;;;;;11.75;6.57;;;;;;;9.05;100.00;98186.03;5018683;28;20026;-78
2023/04/22 03:40:18;;;;;;;10.07;7.10;;;;;;;9.11;100.00;98204.06;5016616;28;20032;-77
2023/04/22 03:42:43;;;;;;;13.77;6.88;;;;;;;9.09;100.00;98212.41;5023907;28;20026;-77
2023/04/22 03:45:09;;;;;;;10.02;6.32;;;;;;;9.13;100.00;98212.81;5016222;28;20127;-77
2023/04/22 03:47:34;;;;;;;12.00;6.90;;;;;;;8.96;100.00;98197.03;5017726;28;20030;-78
2023/04/22 03:49:59;;;;;;;10.27;6.35;;;;;;;8.75;100.00;98168.41;5014184;28;20029;-78
2023/04/22 03:52:25;;;;;;;11.52;6.38;;;;;;;8.85;100.00;98197.66;5025584;28;20394;-77
2023/04/22 03:54:50;;;;;;;8.95;6.05;;;;;;;8.89;100.00;98192.69;5029555;28;20444;-79
2023/04/22 03:57:15;;;;;;;13.40;6.43;;;;;;;8.73;100.00;98192.06;5029441;28;20033;-78
2023/04/22 03:59:40;;;;;;;8.77;6.45;;;;;;;8.59;100.00;98171.50;5022903;28;20033;-78
2023/04/22 04:02:06;;;;;;;12.63;6.53;;;;;;;8.82;100.00;98202.63;5022919;28;20084;-78
2023/04/22 04:04:33;;;;;;;11.13;7.10;;;;;;;8.72;100.00;98203.88;5015979;28;20083;-78
2023/04/22 04:06:59;;;;;;;9.77;6.32;;;;;;;8.52;100.00;98171.50;5023967;28;20442;-78
2023/04/22 04:09:25;;;;;;;10.45;6.55;;;;;;;8.60;100.00;98193.91;5020557;28;20037;-78
2023/04/22 04:11:50;;;;;;;12.52;7.25;;;;;;;8.61;100.00;98179.38;5025743;28;20025;-77
2023/04/22 04:14:15;;;;;;;12.88;7.20;;;;;;;8.65;100.00;98186.88;5019866;28;20013;-78
2023/04/22 04:16:41;;;;;;;8.82;6.40;;;;;;;8.68;100.00;98201.81;5017265;28;20033;-79
2023/04/22 04:19:06;;;;;;;8.80;5.82;;;;;;;8.62;100.00;98208.00;5027718;28;20033;-78
2023/04/22 04:21:32;;;;;;;10.20;6.13;;;;;;;8.40;100.00;98189.31;5018269;28;20025;-77
2023/04/22 04:23:58;;;;;;;7.38;5.32;;;;;;;8.33;100.00;98194.66;5023845;28;20029;-78
2023/04/22 04:26:23;;;;;;;8.57;5.50;;;;;;;8.09;100.00;98161.00;5009584;28;20028;-78
2023/04/22 04:28:49;;;;;;;7.63;5.20;;;;;;;8.06;100.00;98164.09;5024713;28;20040;-79
2023/04/22 04:31:14;;;;;;;8.70;5.70;;;;;;;8.28;100.00;98197.13;5020877;28;20033;-79
2023/04/22 04:33:40;;;;;;;9.00;6.18;;;;;;;8.39;100.00;98192.19;5034649;28;20047;-78
2023/04/22 04:36:07;;;;;;;8.88;5.78;;;;;;;8.27;100.00;98173.91;5035382;28;20030;-78
2023/04/22 04:38:33;;;;;;;9.52;6.20;;;;;;;8.49;100.00;98189.97;5015884;28;20041;-86
2023/04/22 04:40:58;;;;;;;9.27;6.03;;;;;;;8.67;100.00;98195.59;5029350;28;20392;-84
2023/04/22 04:43:24;;;;;;;9.57;5.78;;;;;;;8.72;100.00;98189.56;5026072;28;20034;-82
2023/04/22 04:45:51;;;;;;;8.35;5.45;;;;;;;8.64;100.00;98174.41;5010414;28;20018;-80
2023/04/22 04:48:18;;;;;;;8.32;5.47;;;;;;;8.63;100.00;98163.84;5022515;28;20540;-86
2023/04/22 04:50:44;;;;;;;13.63;6.03;;;;;;;8.74;100.00;98176.69;5026964;28;20450;-82
2023/04/22 04:53:10;;;;;;;9.93;6.38;;;;;;;8.80;100.00;98183.94;5038491;28;20060;-80
2023/04/22 04:55:35;;;;;;;12.93;7.70;;;;;;;8.71;100.00;98175.25;5020332;28;20471;-80
2023/04/22 04:58:01;;;;;;;10.88;7.43;;;;;;;8.53;100.00;98161.53;5026353;28;20033;-84
2023/04/22 05:00:26;;;;;;;11.10;6.72;;;;;;;8.70;100.00;98191.66;5038604;28;20083;-83
2023/04/22 05:02:51;;;;;;;13.02;5.85;;;;;;;8.49;100.00;98152.22;5035622;28;20033;-81
2023/04/22 05:05:17;;;;;;;7.32;5.05;;;;;;;8.77;100.00;98185.19;5037125;28;20029;-81
2023/04/22 05:07:42;;;;;;;11.93;5.35;;;;;;;8.81;100.00;98169.44;5025183;28;20064;-79
2023/04/22 05:10:09;;;;;;;8.52;5.53;;;;;;;8.91;100.00;98175.25;5014423;28;20075;-75
2023/04/22 05:12:34;;;;;;;7.07;4.90;;;;;;;8.95;100.00;98176.47;5027748;28;20026;-84
2023/04/22 05:14:59;;;;;;;10.10;5.13;;;;;;;8.84;100.00;98162.81;5026093;28;20033;-81
2023/04/22 05:17:25;;;;;;;10.13;4.97;;;;;;;8.85;100.00;98161.75;5042961;28;20432;-81
2023/04/22 05:19:50;;;;;;;7.57;5.03;;;;;;;8.86;100.00;98166.13;5016959;28;20061;-82
2023/04/22 05:22:17;;;;;;;10.05;5.63;;;;;;;8.94;100.00;98149.72;5011554;28;20025;-79
2023/04/22 05:24:42;;;;;;;9.13;5.00;;;;;;;9.15;100.00;98171.06;5014706;28;20037;-75
2023/04/22 05:27:08;;;;;;;11.95;5.45;;;;;;;9.23;100.00;98161.94;5010910;28;20566;-75
2023/04/22 05:29:33;;;;;;;8.98;4.80;;;;;;;9.36;100.00;98156.50;5019709;28;20029;-82
2023/04/22 05:31:59;;;;;;;8.05;4.68;;;;;;;9.38;100.00;98148.19;5020456;28;20017;-80
2023/04/22 05:34:24;;;;;;;6.10;4.03;;;;;;;9.48;100.00;98145.03;5030629;28;20032;-79
2023/04/22 05:36:50;;;;;;;6.82;4.68;;;;;;;9.56;100.00;98131.31;5017354;28;20028;-79
2023/04/22 05:39:15;;;;;;;6.40;4.38;;;;;;;9.78;100.00;98159.69;5089673;23;20049;-67
2023/04/22 05:41:40;;;;;;;10.02;4.72;;;;;;;9.84;100.00;98158.00;5029796;28;20025;-67
2023/04/22 05:44:06;;;;;;;8.10;4.88;;;;;;;9.96;100.00;98152.75;5040300;28;20196;-67
2023/04/22 05:46:32;;;;;;;17.98;5.30;;;;;;;10.21;100.00;98159.06;5010892;28;20033;-67
2023/04/22 05:48:57;;;;;;;6.22;4.60;;;;;;;10.43;100.00;98158.78;5012368;28;20033;-67
2023/04/22 05:51:23;;;;;;;6.07;4.05;;;;;;;10.57;100.00;98152.19;5013591;28;20033;-67
2023/04/22 05:53:49;;;;;;;9.60;4.72;;;;;;;10.62;100.00;98151.56;5015041;28;20479;-67
2023/04/22 05:56:14;;;;;;;7.43;4.30;;;;;;;10.69;100.00;98150.47;5010281;28;20029;-62
2023/04/22 05:58:39;;;;;;;7.18;4.57;;;;;;;10.88;100.00;98147.81;5007694;28;20483;-60
2023/04/22 06:01:05;;;;;;;6.00;3.72;;;;;;;11.02;100.00;98133.09;5011447;28;20503;-60
2023/04/22 06:03:30;;;;;;;9.45;4.03;;;;;;;11.24;100.00;98141.66;5015458;28;20021;-60
2023/04/22 06:05:56;;;;;;;6.10;4.22;;;;;;;11.62;100.00;98138.72;5019362;28;20048;-59
2023/04/22 06:08:21;;;;;;;4.53;3.65;;;;;;;11.97;100.00;98145.41;5012405;28;20030;-59
2023/04/22 06:10:47;;;;;;;6.88;3.92;;;;;;;12.23;100.00;98147.75;5017246;28;20025;-58
2023/04/22 06:13:12;;;;;;;5.47;3.55;;;;;;;12.49;100.00;98154.69;5009387;28;20079;-60
2023/04/22 06:15:38;;;;;;;8.75;3.05;;;;;;;13.35;100.00;98152.44;5009151;28;20053;-59
2023/04/22 06:18:03;;;;;;;5.65;3.10;;;;;;;14.18;100.00;98142.22;5014521;28;20068;-59
2023/04/22 06:20:31;;;;;;;5.72;3.47;;;;;;;14.04;100.00;98138.13;5019504;28;20033;-59
2023/04/22 06:22:57;;;;;;;4.90;3.45;;;;;;;13.91;100.00;98150.13;5017161;28;20044;-59
2023/04/22 06:25:22;;;;;;;5.95;3.47;;;;;;;14.22;100.00;98139.81;5006159;28;20477;-59
2023/04/22 06:27:48;;;;;;;6.00;3.53;;;;;;;14.34;100.00;98139.78;5019643;28;20465;-59
2023/04/22 06:30:14;;;;;;;5.72;3.90;;;;;;;15.24;100.00;98133.41;5018335;28;20674;-59
2023/04/22 06:32:41;;;;;;;4.63;3.30;;;;;;;16.75;100.00;98139.31;5010663;28;20017;-59
2023/04/22 06:35:07;;;;;;;5.82;3.33;;;;;;;17.49;100.00;98129.50;5017055;28;20060;-59
2023/04/22 06:37:32;;;;;;;3.28;2.65;;;;;;;17.62;100.00;98147.34;5014717;28;20053;-59
2023/04/22 06:39:57;;;;;;;5.88;3.20;;;;;;;17.01;100.00;98140.38;4989423;28;20049;-60
2023/04/22 06:42:23;;;;;;;6.85;3.40;;;;;;;15.98;100.00;98141.25;5007144;28;20033;-59
2023/04/22 06:44:49;;;;;;;4.43;2.90;;;;;;;15.60;100.00;98144.81;5007138;28;20042;-59
2023/04/22 06:47:15;;;;;;;5.30;3.00;;;;;;;15.60;100.00;98144.81;5014986;28;20432;-59
2023/04/22 06:49:41;;;;;;;5.03;2.53;;;;;;;15.51;100.00;98149.91;5007962;28;20033;-60
2023/04/22 06:52:07;;;;;;;5.20;2.97;;;;;;;15.99;100.00;98153.00;5015765;28;20104;-57
2023/04/22 06:54:32;;;;;;;5.03;2.88;;;;;;;16.47;100.00;98153.25;5013388;28;20026;-57
2023/04/22 06:56:58;;;;;;;4.25;1.83;;;;;;;16.99;100.00;98153.47;5021076;28;20053;-58
2023/04/22 06:59:23;;;;;;;4.10;2.17;;;;;;;17.66;100.00;98154.78;5011337;28;20114;-58
2023/04/22 07:01:49;;;;;;;6.10;2.70;;;;;;;18.18;100.00;98151.19;5018913;28;20392;-57
2023/04/22 07:04:14;;;;;;;2.50;2.00;;;;;;;18.21;100.00;98144.38;5014551;28;20473;-58
2023/04/22 07:06:42;;;;;;;2.50;1.63;;;;;;;17.81;100.00;98147.75;5028208;28;20025;-58
2023/04/22 07:09:08;;;;;;;3.67;1.77;;;;;;;17.27;100.00;98148.78;5015294;28;20029;-62
2023/04/22 07:11:34;;;;;;;3.53;1.70;;;;;;;17.36;100.00;98138.16;5022076;28;20065;-62
2023/04/22 07:13:59;;;;;;;3.75;1.88;;;;;;;17.34;100.00;98137.59;5010415;28;20119;-62
2023/04/22 07:16:25;;;;;;;5.30;2.03;;;;;;;17.40;100.00;98147.50;5030660;28;20021;-62
2023/04/22 07:18:51;;;;;;;2.45;1.45;;;;;;;17.65;100.00;98144.09;5012184;28;20112;-65
2023/04/22 07:21:16;;;;;;;4.25;1.70;;;;;;;17.64;100.00;98140.53;5025492;28;20025;-65
2023/04/22 07:23:41;;;;;;;2.65;1.40;;;;;;;17.88;100.00;98138.22;5014443;28;20033;-66
2023/04/22 07:26:07;;;;;;;1.83;1.30;;;;;;;18.41;91.51;98135.34;5008100;28;20026;-65
2023/04/22 07:28:32;;;;;;;4.65;1.88;;;;;;;20.92;73.37;98129.22;5011776;28;20118;-65
2023/04/22 07:30:58;;;;;;;3.72;1.58;;;;;;;23.21;59.97;98127.50;5016858;28;20068;-62
2023/04/22 07:33:23;;;;;;;4.53;1.77;;;;;;;24.33;53.67;98121.75;5006675;28;20022;-65
2023/04/22 07:35:48;;;;;;;2.08;1.10;;;;;;;25.33;50.71;98118.84;5032408;28;20025;-61
2023/04/22 07:38:14;;;;;;;2.47;1.15;;;;;;;26.44;47.37;98116.00;5017812;28;20037;-57
2023/04/22 07:40:39;;;;;;;4.32;0.80;;;;;;;27.31;45.14;98106.88;5011709;28;20025;-57
2023/04/22 07:43:05;;;;;;;1.48;0.98;;;;;;;27.06;44.88;98114.06;5012292;28;20034;-57
2023/04/22 07:45:31;;;;;;;1.25;0.90;;;;;;;26.74;44.36;98110.66;5014637;28;20030;-57
2023/04/22 07:47:57;;;;;;;1.88;1.17;;;;;;;25.51;45.56;98103.13;5017941;28;20056;-57
2023/04/22 07:50:22;;;;;;;1.60;1.17;;;;;;;24.48;47.56;98104.84;5017313;28;20053;-57
2023/04/22 07:52:48;;;;;;;1.55;0.90;;;;;;;24.13;48.43;98094.53;5020918;28;20022;-57
2023/04/22 07:55:13;;;;;;;2.85;1.15;;;;;;;22.65;51.97;98109.91;5010621;28;20021;-58
2023/04/22 07:57:38;;;;;;;2.15;0.90;;;;;;;22.69;52.48;98105.44;5012941;28;20134;-58
2023/04/22 08:00:08;;;;;;;3.30;1.15;;;;;;;22.59;52.41;98104.78;5005675;28;20061;-57
2023/04/22 08:02:34;;;;;;;1.48;0.95;;;;;;;22.45;52.32;98111.06;5008068;28;20123;-62
2023/04/22 08:05:00;;;;;;;2.63;1.15;;;;;;;22.18;53.40;98110.84;5009495;28;20030;-62
2023/04/22 08:07:25;;;;;;;2.00;0.98;;;;;;;21.67;53.00;98107.63;5029722;28;20088;-62
2023/04/22 08:09:51;;;;;;;1.55;0.95;;;;;;;22.13;53.97;98114.47;5014286;28;21991;-62
2023/04/22 08:12:17;;;;;;;1.48;1.13;;;;;;;22.08;53.42;98112.59;5010570;28;20025;-57
2023/04/22 08:14:42;;;;;;;1.98;0.93;;;;;;;22.10;53.24;98115.09;5007029;28;20507;-57
2023/04/22 08:17:08;;;;;;;2.38;1.02;;;;;;;21.96;54.39;98119.69;5019468;28;20041;-57
2023/04/22 08:19:33;;;;;;;2.67;1.10;;;;;;;22.16;53.53;98116.66;5011185;28;20520;-57
2023/04/22 08:21:58;;;;;;;2.03;1.05;;;;;;;21.39;55.84;98125.00;5014526;28;20084;-62
2023/04/22 08:24:24;;;;;;;1.70;1.17;;;;;;;21.82;55.69;98125.06;5015627;28;20028;-62
2023/04/22 08:26:50;;;;;;;2.13;1.00;;;;;;;21.52;56.78;98131.75;5010649;28;20033;-62
2023/04/22 08:29:15;;;;;;;4.10;1.10;;;;;;;20.44;61.33;98132.56;5017030;28;20022;-62
2023/04/22 08:31:41;;;;;;;2.00;1.17;;;;;;;19.90;64.95;98125.97;5025130;28;20124;-62
2023/04/22 08:34:06;;;;;;;3.22;1.40;;;;;;;18.97;70.62;98129.97;5015797;28;20025;-59
2023/04/22 08:36:32;;;;;;;3.53;1.40;;;;;;;18.61;77.15;98135.41;5034370;28;20029;-59
2023/04/22 08:38:57;;;;;;;2.78;1.67;;;;;;;18.35;82.06;98148.22;5016318;28;20029;-62
2023/04/22 08:41:23;;;;;;;3.40;1.70;;;;;;;18.44;89.58;98142.22;5013300;28;20534;-62
2023/04/22 08:43:49;;;;;;;4.20;1.50;;;;;;;19.35;82.63;98132.41;5004951;28;20018;-62
2023/04/22 08:46:16;;;;;;;3.42;1.60;;;;;;;20.32;73.78;98132.91;5017303;28;20377;-61
2023/04/22 08:48:42;;;;;;;4.32;1.42;;;;;;;21.49;67.45;98135.09;5025057;28;20025;-60
2023/04/22 08:51:07;;;;;;;2.58;1.60;;;;;;;23.97;59.01;98130.81;5033745;28;20029;-60
2023/04/22 08:53:33;;;;;;;3.58;1.50;;;;;;;26.55;50.88;98113.75;5020124;28;20076;-62
2023/04/22 08:55:58;;;;;;;3.50;1.60;;;;;;;27.88;46.64;98122.41;5016319;28;20104;-63
2023/04/22 08:58:24;;;;;;;2.65;1.40;;;;;;;28.45;45.40;98116.34;5017146;28;20026;-63
2023/04/22 09:00:50;;;;;;;3.17;1.60;;;;;;;29.65;43.33;98110.03;5019538;28;20477;-62
2023/04/22 09:03:17;;;;;;;2.80;1.65;;;;;;;30.05;40.98;98114.09;5005715;28;20083;-62
2023/04/22 09:05:44;;;;;;;2.33;1.25;;;;;;;28.66;41.82;98113.56;5007998;28;20054;-63
2023/04/22 09:08:10;;;;;;;2.22;1.50;;;;;;;28.54;42.65;98102.38;5010573;28;20030;-63
2023/04/22 09:10:37;;;;;;;3.08;1.40;;;;;;;28.94;42.25;98105.47;5017373;28;20155;-61
2023/04/22 09:13:04;;;;;;;2.05;1.35;;;;;;;29.03;40.60;98103.44;5031273;28;20426;-61
2023/04/22 09:15:30;;;;;;;3.15;1.67;;;;;;;27.89;42.84;98116.47;5010666;28;20059;-61
2023/04/22 09:17:57;;;;;;;1.67;1.00;;;;;;;28.35;42.03;98106.41;5014905;28;20021;-61
2023/04/22 09:20:27;;;;;;;2.05;1.10;;;;;;;27.32;41.79;98103.75;5024352;28;20029;-59
2023/04/22 09:22:55;;;;;;;1.73;1.30;;;;;;;28.26;41.46;98093.72;5025648;28;20112;-68
2023/04/22 09:25:23;;;;;;;1.90;1.30;;;;;;;27.80;41.00;98100.94;5028416;28;20021;-61
2023/04/22 09:27:50;;;;;;;;;;;;;;;28.65;39.69;98097.22;5023744;28;20033;-61
2023/04/22 09:30:18;;;;;;;1.30;1.10;;;;;;;29.63;38.09;98097.56;5044292;28;20264;-61
2023/04/22 09:32:57;;;;;;;3.88;1.30;;;;;;;30.41;37.88;98092.94;5029012;28;20040;-62
2023/04/22 09:35:26;;;;;;;1.88;1.02;;;;;;;30.04;37.61;98095.75;5011177;28;20409;-62
2023/04/22 09:37:52;;;;;;;1.80;1.17;;;;;;;29.96;37.19;98091.13;5012184;28;20507;-65
2023/04/22 09:40:18;;;;;;;2.08;1.10;;;;;;;28.12;38.88;98097.56;5008881;28;20033;-64
2023/04/22 09:42:52;;;;;;;4.00;1.10;;;;;;;27.93;39.23;98092.44;5017269;28;20029;-63
2023/04/22 09:45:44;;;;;;;1.05;0.80;;;;;;;29.22;37.54;98082.63;5011803;28;20018;-61
2023/04/22 09:48:14;;;;;;;2.95;1.17;;;;;;;29.65;37.47;98081.34;5007236;28;20037;-63
2023/04/22 09:50:45;;;;;;;3.63;1.00;;;;;;;29.81;37.00;98082.28;5010119;28;20034;-64
2023/04/22 09:53:15;;;;;;;2.83;1.15;;;;;;;30.71;35.79;98082.31;5007178;28;20029;-64
2023/04/22 09:55:45;;;;;;;1.23;0.98;;;;;;;30.81;35.53;98079.00;5012174;28;20083;-61
2023/04/22 09:58:16;;;;;;;4.95;1.33;;;;;;;31.43;34.55;98076.75;5022673;28;20030;-61
2023/04/22 10:00:47;;;;;;;2.20;0.90;;;;;;;32.06;34.12;98081.53;5013161;28;20033;-60
2023/04/22 10:03:13;;;;;;;3.08;0.70;;;;;;;33.79;32.18;98070.69;5019744;28;20029;-60
2023/04/22 10:05:40;;;;;;;1.88;1.15;;;;;;;34.50;31.20;98072.97;5014146;28;20380;-62
2023/04/22 10:08:08;;;;;;;0.73;0.63;;;;;;;33.05;31.42;98067.34;5013551;28;20025;-62
2023/04/22 10:10:34;;;;;;;7.75;1.05;;;;;;;33.95;32.05;98062.13;5013704;28;20534;-62
2023/04/22 10:13:00;;;;;;;2.83;0.90;;;;;;;35.94;30.03;98050.88;5012354;28;20037;-63
2023/04/22 10:15:32;;;;;;;1.45;0.80;;;;;;;33.97;30.49;98047.72;5014015;28;20032;-62
2023/04/22 10:17:58;;;;;;;3.90;1.10;;;;;;;33.52;29.96;98049.38;5025400;28;20029;-63
2023/04/22 10:20:27;;;;;;;1.33;0.90;;;;;;;32.55;31.51;98057.88;5007711;28;20037;-63
2023/04/22 10:22:55;;;;;;;4.15;1.00;;;;;;;32.76;31.49;98052.72;5024455;28;20094;-65
2023/04/22 10:25:22;;;;;;;3.25;0.90;;;;;;;33.85;31.11;98043.09;5003381;28;20669;-65
2023/04/22 10:28:08;;;;;;;1.65;0.93;;;;;;;34.67;29.05;98041.53;5021035;28;20037;-65
2023/04/22 10:30:37;;;;;;;1.95;0.60;;;;;;;34.96;28.95;98041.88;5014496;28;20037;-66
2023/04/22 10:33:20;;;;;;;1.58;1.00;;;;;;;34.40;28.67;98045.53;5036379;28;20032;-63
2023/04/22 10:36:14;;;;;;;0.75;0.60;;;;;;;33.91;28.88;98043.63;5012751;28;20041;-64
2023/04/22 10:38:40;;;;;;;1.63;0.80;;;;;;;34.60;28.83;98043.44;5023817;28;20031;-63
2023/04/22 10:41:05;;;;;;;1.30;0.60;;;;;;;35.26;28.41;98044.63;5014569;28;22852;-63
2023/04/22 10:43:45;;;;;;;0.90;0.65;;;;;;;35.40;27.75;98043.13;5013181;28;20415;-64
2023/04/22 10:46:30;;;;;;;2.88;0.90;;;;;;;34.48;28.55;98031.25;5011226;28;20033;-64
2023/04/22 10:48:56;;;;;;;2.45;1.08;;;;;;;33.88;29.37;98035.94;5011208;28;20132;-65
2023/04/22 10:51:37;;;;;;;1.52;0.77;;;;;;;34.03;28.29;98030.19;5006603;28;20116;-64
2023/04/22 10:54:02;;;;;;;1.85;0.60;;;;;;;33.95;29.02;98022.03;5003338;28;20029;-64
2023/04/22 10:56:28;;;;;;;2.53;0.85;;;;;;;32.15;31.15;98028.16;5007267;28;20037;-65
2023/04/22 10:58:55;;;;;;;2.40;0.75;;;;;;;30.73;32.04;98019.34;5011211;28;20041;-65
2023/04/22 11:01:20;;;;;;;1.83;0.93;;;;;;;29.18;32.46;98015.63;5016983;28;20487;-65
2023/04/22 11:03:46;;;;;;;1.02;0.70;;;;;;;30.16;33.15;98014.84;5019916;28;20041;-64
2023/04/22 11:06:17;;;;;;;2.05;0.80;;;;;;;30.40;32.24;98010.41;5011324;28;20120;-64
2023/04/22 11:09:09;;;;;;;2.90;0.80;;;;;;;31.97;31.01;98011.00;4999766;28;20022;-64
2023/04/22 11:11:34;;;;;;;2.08;0.90;;;;;;;33.00;29.70;98006.75;5011925;28;20409;-64
2023/04/22 11:14:00;;;;;;;0.98;0.80;;;;;;;33.82;30.06;98002.59;5014294;28;20021;-63
2023/04/22 11:16:25;;;;;;;3.25;0.80;;;;;;;32.64;29.78;98003.25;5010851;28;20052;-65
2023/04/22 11:18:51;;;;;;;0.95;0.68;;;;;;;33.71;29.81;98001.63;5019970;28;20564;-65
2023/04/22 11:21:17;;;;;;;1.75;0.93;;;;;;;33.24;29.96;97994.41;5015885;28;20099;-65
2023/04/22 11:23:51;;;;;;;1.52;0.80;;;;;;;32.28;29.52;97996.09;5006308;28;20033;-65
2023/04/22 11:26:18;;;;;;;1.05;0.70;;;;;;;34.25;28.04;98002.44;5004417;28;20037;-65